createdAt,value
2023-05-14T00:00:26.756Z,68.86
2023-05-14T00:02:54.267Z,69.11
2023-05-14T00:05:21.428Z,68.91
2023-05-14T00:07:48.314Z,68.91
2023-05-14T00:10:15.324Z,69.27
2023-05-14T00:12:42.513Z,69.50
2023-05-14T00:15:09.809Z,69.63
2023-05-14T00:17:37.496Z,69.17
2023-05-14T00:20:07.253Z,69.81
2023-05-14T00:22:34.976Z,69.99
2023-05-14T00:25:01.962Z,70.04
2023-05-14T00:27:31.484Z,70.06
2023-05-14T00:29:58.492Z,69.72
2023-05-14T00:32:25.630Z,70.01
2023-05-14T00:34:52.777Z,70.26
2023-05-14T00:37:19.860Z,70.85
2023-05-14T00:39:47.004Z,71.08
2023-05-14T00:42:14.089Z,71.25
2023-05-14T00:44:41.190Z,71.21
2023-05-14T00:47:08.561Z,71.47
2023-05-14T00:49:35.836Z,71.64
2023-05-14T00:52:02.810Z,71.85
2023-05-14T00:54:29.903Z,71.77
2023-05-14T00:56:56.841Z,71.92
2023-05-14T00:59:23.986Z,71.96
2023-05-14T01:01:51.129Z,72.02
2023-05-14T01:04:18.685Z,72.03
2023-05-14T01:07:02.727Z,71.92
2023-05-14T01:09:36.470Z,71.93
2023-05-14T01:12:27.105Z,72.05
2023-05-14T01:15:13.461Z,72.28
2023-05-14T01:17:47.280Z,72.11
2023-05-14T01:20:14.851Z,72.53
2023-05-14T01:22:41.827Z,72.50
2023-05-14T01:25:09.946Z,72.64
2023-05-14T01:27:50.307Z,72.98
2023-05-14T01:30:24.382Z,72.84
2023-05-14T01:32:53.434Z,73.11
2023-05-14T01:35:22.573Z,73.57
2023-05-14T01:37:49.807Z,73.39
2023-05-14T01:40:16.903Z,73.21
2023-05-14T01:42:43.988Z,73.85
2023-05-14T01:45:11.162Z,73.79
2023-05-14T01:47:38.173Z,73.96
2023-05-14T01:50:05.585Z,74.16
2023-05-14T01:52:32.747Z,74.26
2023-05-14T01:55:00.227Z,74.02
2023-05-14T01:57:27.364Z,74.26
2023-05-14T01:59:54.295Z,74.46
2023-05-14T02:02:21.607Z,74.93
2023-05-14T02:04:48.666Z,74.67
2023-05-14T02:07:15.773Z,74.57
2023-05-14T02:09:42.844Z,75.12
2023-05-14T02:12:11.150Z,75.30
2023-05-14T02:14:38.321Z,75.13
2023-05-14T02:17:05.858Z,74.97
2023-05-14T02:19:33.123Z,74.92
2023-05-14T02:22:01.236Z,75.15
2023-05-14T02:24:28.490Z,75.26
2023-05-14T02:26:55.800Z,75.08
2023-05-14T02:29:23.569Z,75.27
2023-05-14T02:31:50.637Z,75.25
2023-05-14T02:34:17.627Z,75.50
2023-05-14T02:36:44.617Z,75.74
2023-05-14T02:39:11.791Z,75.95
2023-05-14T02:41:38.897Z,76.12
2023-05-14T02:44:06.117Z,76.04
2023-05-14T02:46:33.467Z,76.57
2023-05-14T02:49:03.036Z,76.52
2023-05-14T02:51:30.059Z,76.68
2023-05-14T02:53:57.122Z,76.95
2023-05-14T02:56:24.216Z,76.97
2023-05-14T02:58:51.293Z,77.16
2023-05-14T03:01:18.937Z,77.50
2023-05-14T03:03:46.495Z,77.43
2023-05-14T03:06:13.648Z,78.01
2023-05-14T03:08:41.768Z,77.81
2023-05-14T03:11:08.800Z,77.97
2023-05-14T03:13:35.824Z,77.60
2023-05-14T03:16:02.834Z,77.66
2023-05-14T03:18:30.870Z,77.83
2023-05-14T03:20:58.149Z,77.55
2023-05-14T03:23:25.148Z,77.26
2023-05-14T03:25:52.733Z,77.08
2023-05-14T03:28:19.825Z,76.82
2023-05-14T03:30:46.960Z,76.97
2023-05-14T03:33:14.080Z,76.75
2023-05-14T03:35:41.131Z,76.37
2023-05-14T03:38:08.260Z,76.15
2023-05-14T03:40:35.344Z,75.65
2023-05-14T03:43:02.595Z,75.59
2023-05-14T03:45:30.501Z,75.04
2023-05-14T03:47:59.333Z,74.86
2023-05-14T03:50:26.935Z,74.58
2023-05-14T03:52:55.039Z,74.08
2023-05-14T03:55:22.113Z,73.73
2023-05-14T03:57:49.187Z,72.72
2023-05-14T04:00:16.478Z,72.27
2023-05-14T04:02:46.379Z,71.57
2023-05-14T04:05:13.523Z,71.05
2023-05-14T04:07:40.551Z,70.38
2023-05-14T04:10:08.184Z,69.74
2023-05-14T04:12:36.513Z,69.74
2023-05-14T04:15:04.272Z,69.92
2023-05-14T04:17:34.569Z,69.98
2023-05-14T04:20:02.160Z,69.39
2023-05-14T04:22:30.290Z,69.40
2023-05-14T04:24:57.200Z,69.31
2023-05-14T04:27:24.327Z,69.73
2023-05-14T04:29:51.377Z,69.71
2023-05-14T04:32:18.636Z,70.03
2023-05-14T04:34:46.980Z,70.22
2023-05-14T04:37:14.130Z,70.64
2023-05-14T04:39:41.192Z,70.53
2023-05-14T04:42:08.258Z,70.21
2023-05-14T04:44:36.360Z,70.55
2023-05-14T04:47:04.352Z,70.79
2023-05-14T04:49:31.378Z,70.55
2023-05-14T04:51:58.646Z,70.22
2023-05-14T04:54:25.790Z,70.20
2023-05-14T04:56:53.015Z,70.09
2023-05-14T04:59:20.164Z,70.18
2023-05-14T05:01:47.434Z,70.10
2023-05-14T05:04:14.755Z,70.30
2023-05-14T05:06:41.886Z,70.16
2023-05-14T05:09:09.553Z,70.18
2023-05-14T05:11:36.540Z,70.13
2023-05-14T05:14:03.569Z,70.30
2023-05-14T05:16:30.857Z,69.61
2023-05-14T05:18:58.178Z,69.01
2023-05-14T05:21:25.302Z,68.18
2023-05-14T05:23:52.353Z,67.56
2023-05-14T05:26:19.382Z,66.57
2023-05-14T05:28:46.497Z,66.06
2023-05-14T05:31:13.426Z,65.48
2023-05-14T05:33:40.572Z,64.59
2023-05-14T05:36:07.778Z,63.69
2023-05-14T05:38:34.888Z,62.17
2023-05-14T05:41:02.041Z,61.06
2023-05-14T05:43:29.141Z,60.33
2023-05-14T05:45:56.552Z,58.64
2023-05-14T05:48:23.559Z,58.27
2023-05-14T05:50:51.635Z,57.62
2023-05-14T05:53:18.653Z,56.52
2023-05-14T05:55:45.684Z,55.80
2023-05-14T05:58:15.747Z,54.42
2023-05-14T06:00:43.046Z,53.67
2023-05-14T06:03:10.023Z,52.76
2023-05-14T06:05:37.320Z,51.30
2023-05-14T06:08:04.813Z,51.02
2023-05-14T06:10:32.132Z,50.61
2023-05-14T06:12:59.164Z,50.85
2023-05-14T06:15:26.161Z,50.74
2023-05-14T06:17:53.254Z,49.66
2023-05-14T06:20:20.430Z,48.14
2023-05-14T06:22:47.513Z,48.46
2023-05-14T06:25:14.434Z,48.26
2023-05-14T06:27:41.614Z,48.03
2023-05-14T06:30:09.226Z,47.70
2023-05-14T06:32:36.380Z,46.27
2023-05-14T06:35:04.252Z,46.13
2023-05-14T06:37:33.471Z,45.74
2023-05-14T06:40:01.441Z,45.33
2023-05-14T06:42:28.967Z,44.81
2023-05-14T06:44:56.226Z,44.78
2023-05-14T06:47:23.286Z,44.05
2023-05-14T06:49:50.488Z,43.27
2023-05-14T06:52:17.399Z,44.10
2023-05-14T06:54:44.436Z,43.55
2023-05-14T06:57:11.400Z,43.69
2023-05-14T06:59:38.496Z,43.56
2023-05-14T07:02:05.629Z,42.70
2023-05-14T07:04:32.708Z,42.48
2023-05-14T07:06:59.812Z,43.49
2023-05-14T07:09:26.703Z,44.42
2023-05-14T07:11:53.878Z,44.17
2023-05-14T07:14:21.094Z,43.86
2023-05-14T07:16:48.170Z,42.93
2023-05-14T07:19:15.268Z,42.58
2023-05-14T07:21:42.391Z,42.13
2023-05-14T07:24:09.444Z,42.70
2023-05-14T07:26:37.042Z,43.35
2023-05-14T07:29:03.959Z,42.06
2023-05-14T07:31:31.061Z,41.45
2023-05-14T07:33:58.264Z,41.57
2023-05-14T07:36:25.400Z,41.56
2023-05-14T07:38:52.422Z,40.47
2023-05-14T07:41:19.472Z,39.69
2023-05-14T07:43:46.374Z,39.92
2023-05-14T07:46:13.337Z,40.24
2023-05-14T07:48:40.600Z,39.81
2023-05-14T07:51:07.865Z,39.63
2023-05-14T07:53:34.835Z,39.23
2023-05-14T07:56:01.829Z,39.66
2023-05-14T07:58:29.017Z,39.32
2023-05-14T08:00:56.722Z,39.47
2023-05-14T08:03:24.095Z,38.50
2023-05-14T08:05:52.524Z,38.84
2023-05-14T08:08:19.810Z,39.11
2023-05-14T08:10:46.915Z,39.49
2023-05-14T08:13:13.883Z,38.73
2023-05-14T08:15:40.948Z,38.60
2023-05-14T08:18:08.028Z,39.06
2023-05-14T08:20:35.209Z,38.39
2023-05-14T08:23:02.271Z,38.69
2023-05-14T08:25:29.396Z,38.72
2023-05-14T08:27:56.461Z,38.40
2023-05-14T08:30:23.771Z,38.51
2023-05-14T08:32:51.296Z,38.28
2023-05-14T08:35:18.360Z,38.82
2023-05-14T08:37:45.614Z,36.75
2023-05-14T08:40:12.742Z,37.85
2023-05-14T08:42:45.071Z,37.25
2023-05-14T08:45:22.160Z,38.16
2023-05-14T08:47:50.660Z,37.83
2023-05-14T08:50:21.024Z,37.62
2023-05-14T08:52:49.633Z,36.93
2023-05-14T08:55:16.666Z,36.71
2023-05-14T08:57:43.812Z,36.75
2023-05-14T09:00:11.952Z,36.47
2023-05-14T09:02:42.492Z,35.75
2023-05-14T09:05:10.003Z,35.74
2023-05-14T09:07:37.033Z,36.27
2023-05-14T09:10:04.893Z,35.54
2023-05-14T09:12:34.007Z,35.62
2023-05-14T09:15:01.120Z,34.77
2023-05-14T09:17:29.273Z,35.07
2023-05-14T09:19:56.552Z,35.49
2023-05-14T09:22:23.627Z,34.88
2023-05-14T09:25:05.524Z,35.14
2023-05-14T09:27:34.936Z,35.88
2023-05-14T09:30:12.794Z,36.02
2023-05-14T09:32:41.340Z,35.76
2023-05-14T09:35:18.874Z,36.37
2023-05-14T09:37:47.110Z,35.95
2023-05-14T09:40:14.649Z,36.29
2023-05-14T09:42:41.728Z,36.15
2023-05-14T09:45:09.699Z,36.66
2023-05-14T09:47:37.428Z,37.29
2023-05-14T09:50:05.406Z,37.67
2023-05-14T09:52:32.678Z,36.33
2023-05-14T09:55:00.313Z,36.19
2023-05-14T09:57:27.515Z,36.81
2023-05-14T09:59:54.585Z,37.01
2023-05-14T10:02:36.971Z,37.61
2023-05-14T10:05:05.953Z,37.68
2023-05-14T10:07:44.674Z,38.76
2023-05-14T10:10:15.788Z,39.71
2023-05-14T10:12:44.799Z,39.05
2023-05-14T10:15:20.861Z,38.87
2023-05-14T10:17:50.054Z,38.78
2023-05-14T10:20:17.834Z,39.32
2023-05-14T10:22:44.936Z,39.56
2023-05-14T10:25:12.186Z,39.44
2023-05-14T10:27:39.417Z,39.79
2023-05-14T10:30:11.264Z,40.19
2023-05-14T10:32:38.282Z,40.76
2023-05-14T10:35:20.684Z,39.66
2023-05-14T10:37:48.230Z,39.88
2023-05-14T10:40:15.445Z,40.28
2023-05-14T10:42:43.628Z,40.71
2023-05-14T10:45:12.005Z,40.52
2023-05-14T10:47:40.294Z,40.60
2023-05-14T10:50:10.823Z,40.94
2023-05-14T10:52:37.960Z,40.96
2023-05-14T10:55:09.316Z,41.41
2023-05-14T10:57:38.441Z,41.44
2023-05-14T11:00:07.797Z,41.40
2023-05-14T11:02:39.703Z,41.16
2023-05-14T11:05:08.713Z,41.40
2023-05-14T11:07:36.998Z,40.99
2023-05-14T11:10:08.447Z,40.97
2023-05-14T11:12:37.092Z,41.06
2023-05-14T11:15:06.429Z,40.14
2023-05-14T11:17:34.867Z,41.31
2023-05-14T11:20:01.897Z,41.61
2023-05-14T11:22:32.869Z,41.02
2023-05-14T11:25:00.040Z,41.07
2023-05-14T11:27:27.182Z,40.51
2023-05-14T11:29:55.988Z,40.69
2023-05-14T11:32:23.244Z,39.72
2023-05-14T11:34:51.338Z,40.15
2023-05-14T11:37:18.582Z,40.15
2023-05-14T11:39:49.797Z,39.64
2023-05-14T11:42:18.799Z,39.74
2023-05-14T11:44:50.108Z,40.29
2023-05-14T11:47:18.416Z,39.67
2023-05-14T11:49:45.833Z,40.03
2023-05-14T11:52:19.526Z,40.17
2023-05-14T11:54:47.195Z,40.56
2023-05-14T11:57:19.645Z,40.77
2023-05-14T11:59:47.723Z,41.27
2023-05-14T12:02:18.798Z,41.62
2023-05-14T12:04:50.184Z,42.03
2023-05-14T12:07:17.279Z,42.09
2023-05-14T12:09:50.128Z,41.66
2023-05-14T12:12:21.626Z,41.20
2023-05-14T12:14:49.385Z,41.26
2023-05-14T12:17:17.458Z,41.62
2023-05-14T12:19:45.163Z,41.94
2023-05-14T12:22:12.638Z,42.58
2023-05-14T12:24:39.735Z,42.40
2023-05-14T12:27:07.141Z,41.85
2023-05-14T12:29:39.061Z,41.54
2023-05-14T12:32:09.590Z,42.05
2023-05-14T12:34:37.790Z,41.81
2023-05-14T12:37:06.200Z,42.24
2023-05-14T12:39:34.049Z,42.32
2023-05-14T12:42:01.634Z,43.32
2023-05-14T12:44:29.961Z,43.34
2023-05-14T12:46:57.854Z,44.27
2023-05-14T12:49:25.120Z,44.17
2023-05-14T12:51:59.617Z,44.61
2023-05-14T12:54:35.336Z,45.05
2023-05-14T12:57:03.840Z,44.96
2023-05-14T12:59:31.134Z,45.20
2023-05-14T13:01:58.230Z,45.69
2023-05-14T13:04:27.591Z,45.43
2023-05-14T13:07:01.057Z,45.67
2023-05-14T13:09:28.222Z,45.96
2023-05-14T13:11:55.359Z,46.61
2023-05-14T13:14:22.396Z,46.89
2023-05-14T13:16:49.483Z,45.83
2023-05-14T13:19:16.764Z,45.85
2023-05-14T13:21:44.032Z,46.13
2023-05-14T13:24:11.118Z,45.94
2023-05-14T13:26:38.150Z,46.12
2023-05-14T13:29:05.362Z,45.43
2023-05-14T13:31:32.738Z,45.40
2023-05-14T13:34:00.130Z,45.41
2023-05-14T13:36:27.133Z,45.21
2023-05-14T13:38:54.179Z,45.75
2023-05-14T13:41:21.766Z,45.71
2023-05-14T13:43:48.760Z,45.59
2023-05-14T13:46:15.757Z,46.34
2023-05-14T13:48:42.707Z,46.65
2023-05-14T13:51:09.793Z,47.20
2023-05-14T13:53:36.940Z,47.15
2023-05-14T13:56:06.566Z,47.44
2023-05-14T13:58:33.549Z,47.65
2023-05-14T14:01:00.777Z,48.43
2023-05-14T14:03:27.840Z,49.03
2023-05-14T14:05:54.911Z,49.09
2023-05-14T14:08:24.360Z,49.61
2023-05-14T14:10:52.599Z,49.68
2023-05-14T14:13:21.311Z,50.08
2023-05-14T14:15:48.831Z,50.71
2023-05-14T14:18:16.012Z,51.37
2023-05-14T14:20:43.190Z,52.29
2023-05-14T14:23:16.816Z,52.31
2023-05-14T14:25:44.323Z,51.98
2023-05-14T14:28:11.349Z,51.76
2023-05-14T14:30:38.445Z,51.22
2023-05-14T14:33:05.574Z,51.23
2023-05-14T14:35:33.593Z,51.35
2023-05-14T14:38:00.550Z,51.99
2023-05-14T14:40:27.678Z,51.83
2023-05-14T14:42:54.756Z,51.93
2023-05-14T14:45:21.937Z,52.07
2023-05-14T14:47:49.531Z,52.35
2023-05-14T14:50:16.696Z,53.04
2023-05-14T14:52:45.598Z,53.32
2023-05-14T14:55:13.139Z,53.12
2023-05-14T14:57:40.270Z,53.40
2023-05-14T15:00:07.766Z,53.32
2023-05-14T15:02:35.830Z,53.13
2023-05-14T15:05:02.863Z,53.35
2023-05-14T15:07:33.097Z,53.49
2023-05-14T15:10:00.393Z,53.67
2023-05-14T15:12:27.430Z,54.27
2023-05-14T15:14:54.326Z,54.30
2023-05-14T15:17:21.834Z,54.46
2023-05-14T15:19:48.849Z,53.84
2023-05-14T15:22:16.059Z,54.11
2023-05-14T15:24:43.088Z,54.08
2023-05-14T15:27:10.451Z,53.85
2023-05-14T15:29:37.596Z,54.16
2023-05-14T15:32:04.862Z,54.44
2023-05-14T15:34:32.281Z,54.38
2023-05-14T15:36:59.246Z,54.33
2023-05-14T15:39:26.923Z,54.11
2023-05-14T15:41:55.313Z,54.31
2023-05-14T15:44:22.499Z,53.99
2023-05-14T15:46:49.727Z,54.83
2023-05-14T15:49:17.008Z,55.02
2023-05-14T15:51:44.054Z,54.76
2023-05-14T15:54:11.083Z,55.02
2023-05-14T15:56:38.195Z,54.81
2023-05-14T15:59:05.121Z,54.81
2023-05-14T16:01:32.249Z,54.85
2023-05-14T16:03:59.259Z,55.09
2023-05-14T16:06:26.319Z,55.45
2023-05-14T16:08:53.426Z,55.67
2023-05-14T16:11:21.552Z,55.82
2023-05-14T16:13:48.681Z,55.61
2023-05-14T16:16:16.179Z,55.87
2023-05-14T16:18:43.359Z,56.59
2023-05-14T16:21:10.279Z,56.35
2023-05-14T16:23:37.292Z,56.59
2023-05-14T16:26:05.220Z,57.01
2023-05-14T16:28:32.329Z,56.95
2023-05-14T16:31:00.850Z,57.05
2023-05-14T16:33:29.250Z,56.95
2023-05-14T16:35:56.268Z,57.37
2023-05-14T16:38:24.470Z,57.84
2023-05-14T16:40:51.437Z,58.11
2023-05-14T16:43:18.610Z,58.90
2023-05-14T16:45:45.596Z,59.71
2023-05-14T16:48:12.645Z,59.73
2023-05-14T16:50:39.764Z,59.84
2023-05-14T16:53:06.812Z,60.04
2023-05-14T16:55:33.895Z,60.32
2023-05-14T16:58:00.805Z,60.36
2023-05-14T17:00:27.865Z,60.98
2023-05-14T17:02:55.082Z,60.88
2023-05-14T17:05:22.220Z,60.87
2023-05-14T17:07:49.388Z,60.90
2023-05-14T17:10:16.521Z,60.86
2023-05-14T17:12:43.704Z,61.37
2023-05-14T17:15:11.175Z,61.43
2023-05-14T17:17:38.393Z,62.28
2023-05-14T17:20:06.551Z,62.35
2023-05-14T17:22:33.481Z,62.58
2023-05-14T17:25:00.434Z,62.97
2023-05-14T17:27:29.300Z,63.12
2023-05-14T17:29:56.303Z,63.25
2023-05-14T17:32:23.512Z,63.53
2023-05-14T17:34:51.178Z,63.89
2023-05-14T17:37:18.325Z,64.33
2023-05-14T17:39:45.363Z,64.43
2023-05-14T17:42:13.620Z,64.16
2023-05-14T17:44:40.690Z,64.37
2023-05-14T17:47:08.895Z,64.77
2023-05-14T17:49:35.888Z,64.92
2023-05-14T17:52:02.988Z,65.07
2023-05-14T17:54:30.091Z,65.24
2023-05-14T17:56:57.170Z,66.07
2023-05-14T17:59:24.553Z,66.64
2023-05-14T18:01:51.693Z,66.53
2023-05-14T18:04:18.739Z,66.75
2023-05-14T18:06:45.956Z,67.38
2023-05-14T18:09:12.960Z,67.86
2023-05-14T18:11:39.994Z,68.19
2023-05-14T18:14:07.133Z,68.69
2023-05-14T18:16:34.308Z,68.96
2023-05-14T18:19:01.526Z,69.64
2023-05-14T18:21:28.622Z,70.08
2023-05-14T18:23:56.077Z,70.43
2023-05-14T18:26:23.255Z,70.81
2023-05-14T18:28:50.486Z,71.08
2023-05-14T18:31:17.577Z,71.64
2023-05-14T18:33:44.569Z,71.88
2023-05-14T18:36:11.698Z,72.04
2023-05-14T18:38:38.740Z,72.11
2023-05-14T18:41:05.758Z,72.42
2023-05-14T18:43:32.930Z,71.87
2023-05-14T18:46:00.009Z,72.20
2023-05-14T18:48:27.218Z,72.59
2023-05-14T18:50:54.620Z,72.89
2023-05-14T18:53:21.702Z,73.23
2023-05-14T18:55:48.688Z,73.08
2023-05-14T18:58:16.631Z,73.19
2023-05-14T19:00:45.141Z,73.39
2023-05-14T19:03:16.325Z,73.89
2023-05-14T19:05:43.506Z,74.23
2023-05-14T19:08:11.638Z,74.08
2023-05-14T19:10:39.296Z,74.41
2023-05-14T19:13:06.629Z,74.80
2023-05-14T19:15:33.784Z,74.57
2023-05-14T19:18:00.979Z,74.95
2023-05-14T19:20:28.354Z,75.17
2023-05-14T19:22:55.408Z,75.27
2023-05-14T19:25:22.492Z,75.57
2023-05-14T19:27:58.008Z,75.51
2023-05-14T19:30:26.139Z,75.91
2023-05-14T19:32:55.992Z,75.94
2023-05-14T19:35:23.757Z,76.18
2023-05-14T19:37:51.479Z,76.28
2023-05-14T19:40:19.087Z,76.24
2023-05-14T19:42:46.481Z,76.16
2023-05-14T19:45:14.348Z,76.55
2023-05-14T19:47:43.216Z,76.66
2023-05-14T19:50:16.646Z,76.69
2023-05-14T19:52:44.788Z,76.22
2023-05-14T19:55:12.619Z,76.61
2023-05-14T19:57:40.457Z,76.90
2023-05-14T20:00:13.820Z,77.07
2023-05-14T20:02:44.389Z,76.82
2023-05-14T20:05:12.486Z,77.31
2023-05-14T20:07:40.604Z,77.34
2023-05-14T20:10:09.447Z,78.09
2023-05-14T20:12:37.451Z,78.34
2023-05-14T20:15:10.074Z,78.23
2023-05-14T20:17:41.943Z,78.54
2023-05-14T20:20:13.950Z,79.24
2023-05-14T20:22:44.308Z,78.90
2023-05-14T20:25:11.499Z,78.91
2023-05-14T20:27:38.588Z,79.07
2023-05-14T20:30:06.496Z,79.28
2023-05-14T20:32:33.478Z,79.42
2023-05-14T20:35:02.286Z,79.67
2023-05-14T20:37:34.812Z,79.59
2023-05-14T20:40:06.129Z,79.38
2023-05-14T20:42:33.284Z,79.48
2023-05-14T20:45:00.438Z,79.99
2023-05-14T20:47:30.570Z,79.84
2023-05-14T20:49:57.813Z,79.83
2023-05-14T20:52:24.941Z,80.07
2023-05-14T20:54:52.168Z,79.93
2023-05-14T20:57:19.439Z,80.40
2023-05-14T20:59:46.731Z,80.02
2023-05-14T21:02:14.166Z,80.44
2023-05-14T21:04:41.514Z,80.87
2023-05-14T21:07:08.644Z,80.83
2023-05-14T21:09:35.573Z,80.83
2023-05-14T21:12:02.476Z,81.20
2023-05-14T21:14:29.618Z,81.63
2023-05-14T21:16:56.703Z,81.71
2023-05-14T21:19:23.740Z,81.52
2023-05-14T21:21:50.900Z,81.77
2023-05-14T21:24:19.097Z,82.13
2023-05-14T21:26:46.488Z,82.31
2023-05-14T21:29:13.541Z,82.11
2023-05-14T21:31:40.917Z,82.38
2023-05-14T21:34:07.999Z,82.71
2023-05-14T21:36:35.158Z,82.47
2023-05-14T21:39:02.185Z,82.87
2023-05-14T21:41:31.521Z,83.00
2023-05-14T21:43:58.628Z,83.00
2023-05-14T21:46:25.970Z,83.06
2023-05-14T21:48:53.102Z,83.15
2023-05-14T21:51:20.506Z,83.06
2023-05-14T21:53:48.449Z,83.23
2023-05-14T21:56:15.640Z,83.54
2023-05-14T21:58:42.601Z,83.87
2023-05-14T22:01:11.514Z,83.91
2023-05-14T22:03:38.696Z,84.02
2023-05-14T22:06:05.904Z,84.10
2023-05-14T22:08:33.030Z,84.48
2023-05-14T22:11:00.181Z,84.62
2023-05-14T22:13:27.104Z,84.55
2023-05-14T22:16:01.538Z,84.61
2023-05-14T22:18:39.028Z,84.28
2023-05-14T22:21:06.265Z,84.24
2023-05-14T22:23:33.331Z,84.27
2023-05-14T22:26:00.426Z,84.46
2023-05-14T22:28:27.430Z,84.41
2023-05-14T22:30:55.254Z,84.78
2023-05-14T22:33:22.537Z,85.03
2023-05-14T22:35:49.563Z,85.47
2023-05-14T22:38:16.733Z,85.53
2023-05-14T22:40:43.770Z,85.98
2023-05-14T22:43:10.973Z,85.63
2023-05-14T22:45:38.011Z,85.90
2023-05-14T22:48:05.154Z,86.20
2023-05-14T22:50:32.169Z,86.50
2023-05-14T22:52:59.138Z,86.45
2023-05-14T22:55:26.514Z,86.45
2023-05-14T22:57:53.649Z,86.75
2023-05-14T23:00:20.571Z,86.94
2023-05-14T23:02:47.620Z,87.12
2023-05-14T23:05:14.876Z,87.35
2023-05-14T23:07:41.920Z,87.24
2023-05-14T23:10:09.344Z,87.07
2023-05-14T23:12:36.458Z,87.24
2023-05-14T23:15:03.786Z,87.21
2023-05-14T23:17:37.473Z,87.07
2023-05-14T23:20:10.644Z,86.67
2023-05-14T23:22:37.665Z,86.71
2023-05-14T23:25:05.325Z,86.85
2023-05-14T23:27:32.546Z,87.10
2023-05-14T23:29:59.699Z,87.32
2023-05-14T23:32:26.901Z,87.58
2023-05-14T23:34:54.046Z,87.77
2023-05-14T23:37:21.049Z,87.99
2023-05-14T23:39:48.052Z,87.63
2023-05-14T23:42:15.081Z,87.78
2023-05-14T23:44:42.110Z,87.65
2023-05-14T23:47:09.138Z,88.40
2023-05-14T23:49:36.674Z,88.56
2023-05-14T23:52:03.829Z,87.97
2023-05-14T23:54:30.911Z,87.99
2023-05-14T23:56:57.908Z,87.96
2023-05-14T23:59:24.841Z,87.78
